Terminal Aerodrome Forecast
Issued by NWS Corpus Christi, TX

Home | Current Version | Previous Version | Text Only | Print | Product List | Glossary On
Versions: 1 2 3 4 5 6 7 8 9 10 11 12 13 14 15
000
FTUS44 KCRP 221100
TAFVCT
TAF
KVCT 221137Z 2212/2312 07004KT 5SM BR SCT020
      TEMPO 2212/2213 3SM BR BKN020
     FM221400 19007KT P6SM SCT025 BKN200
     FM222100 16012G18KT P6SM SCT040
     FM230200 17008KT P6SM SKC
     FM230600 18005KT 5SM BR FEW015
      TEMPO 2308/2312 2SM BR=

USA.gov is the U.S. government's official web portal to all federal, state and local government web resources and services.